sensor_id;sensor_type;location;lat;lon;timestamp;pressure;altitude;pressure_sealevel;temperature;humidity
75609;BME280;64194;51.044;13.780;2022-10-31T00:03:37;100746.66;;;11.81;83.03
75609;BME280;64194;51.044;13.780;2022-10-31T00:07:39;100750.44;;;11.77;83.12
75609;BME280;64194;51.044;13.780;2022-10-31T00:11:41;100742.19;;;11.82;83.16
75609;BME280;64194;51.044;13.780;2022-10-31T00:15:42;100747.31;;;11.85;82.24
75609;BME280;64194;51.044;13.780;2022-10-31T00:19:44;100748.66;;;11.78;82.31
75609;BME280;64194;51.044;13.780;2022-10-31T00:23:46;100746.66;;;11.65;81.25
75609;BME280;64194;51.044;13.780;2022-10-31T00:27:48;100758.44;;;11.61;82.14
75609;BME280;64194;51.044;13.780;2022-10-31T00:31:50;100754.41;;;11.54;81.17
75609;BME280;64194;51.044;13.780;2022-10-31T00:35:53;100759.72;;;11.54;80.98
75609;BME280;64194;51.044;13.780;2022-10-31T00:39:55;100757.69;;;11.44;82.88
75609;BME280;64194;51.044;13.780;2022-10-31T00:43:56;100765.16;;;11.37;83.31
75609;BME280;64194;51.044;13.780;2022-10-31T00:47:58;100759.75;;;11.39;83.42
75609;BME280;64194;51.044;13.780;2022-10-31T00:52:01;100757.00;;;11.40;83.02
75609;BME280;64194;51.044;13.780;2022-10-31T00:56:03;100759.91;;;11.36;83.24
75609;BME280;64194;51.044;13.780;2022-10-31T01:00:06;100760.97;;;11.33;83.17
75609;BME280;64194;51.044;13.780;2022-10-31T01:04:08;100755.13;;;11.26;83.63
75609;BME280;64194;51.044;13.780;2022-10-31T01:08:09;100766.03;;;11.22;83.49
75609;BME280;64194;51.044;13.780;2022-10-31T01:12:11;100769.13;;;11.14;84.16
75609;BME280;64194;51.044;13.780;2022-10-31T01:16:15;100771.84;;;11.13;83.85
75609;BME280;64194;51.044;13.780;2022-10-31T01:20:17;100765.78;;;11.11;84.57
75609;BME280;64194;51.044;13.780;2022-10-31T01:24:19;100771.50;;;11.19;83.79
75609;BME280;64194;51.044;13.780;2022-10-31T01:28:21;100777.94;;;11.15;83.86
75609;BME280;64194;51.044;13.780;2022-10-31T01:32:22;100770.75;;;11.17;83.91
75609;BME280;64194;51.044;13.780;2022-10-31T01:40:29;100770.75;;;11.17;83.76
75609;BME280;64194;51.044;13.780;2022-10-31T01:48:33;100775.97;;;11.03;84.26
75609;BME280;64194;51.044;13.780;2022-10-31T01:52:44;100772.81;;;10.96;84.32
75609;BME280;64194;51.044;13.780;2022-10-31T01:56:50;100773.06;;;10.91;84.78
75609;BME280;64194;51.044;13.780;2022-10-31T02:00:58;100777.63;;;10.89;84.63
75609;BME280;64194;51.044;13.780;2022-10-31T02:05:10;100783.06;;;10.86;84.88
75609;BME280;64194;51.044;13.780;2022-10-31T02:09:13;100777.94;;;10.83;84.68
75609;BME280;64194;51.044;13.780;2022-10-31T02:13:15;100779.81;;;10.81;84.87
75609;BME280;64194;51.044;13.780;2022-10-31T02:17:21;100781.25;;;10.71;85.11
75609;BME280;64194;51.044;13.780;2022-10-31T02:21:42;100785.19;;;10.64;85.55
75609;BME280;64194;51.044;13.780;2022-10-31T02:26:11;100780.97;;;10.60;85.19
75609;BME280;64194;51.044;13.780;2022-10-31T02:30:21;100781.16;;;10.57;85.46
75609;BME280;64194;51.044;13.780;2022-10-31T02:34:34;100791.94;;;10.54;85.61
75609;BME280;64194;51.044;13.780;2022-10-31T02:43:27;100790.47;;;10.48;85.67
75609;BME280;64194;51.044;13.780;2022-10-31T02:47:36;100794.91;;;10.48;85.69
75609;BME280;64194;51.044;13.780;2022-10-31T02:51:39;100798.84;;;10.41;85.83
75609;BME280;64194;51.044;13.780;2022-10-31T03:00:14;100800.34;;;10.29;85.76
75609;BME280;64194;51.044;13.780;2022-10-31T03:04:29;100803.16;;;10.26;85.84
75609;BME280;64194;51.044;13.780;2022-10-31T03:08:42;100808.63;;;10.23;86.04
75609;BME280;64194;51.044;13.780;2022-10-31T03:12:58;100809.81;;;10.18;86.23
75609;BME280;64194;51.044;13.780;2022-10-31T03:17:05;100811.63;;;10.16;86.32
75609;BME280;64194;51.044;13.780;2022-10-31T03:21:25;100809.22;;;10.11;85.80
75609;BME280;64194;51.044;13.780;2022-10-31T03:25:30;100806.97;;;10.03;85.78
75609;BME280;64194;51.044;13.780;2022-10-31T03:29:35;100807.91;;;10.02;86.00
75609;BME280;64194;51.044;13.780;2022-10-31T03:33:40;100808.66;;;10.04;85.99
75609;BME280;64194;51.044;13.780;2022-10-31T03:37:44;100819.06;;;10.09;85.96
75609;BME280;64194;51.044;13.780;2022-10-31T03:42:07;100820.88;;;10.08;85.75
75609;BME280;64194;51.044;13.780;2022-10-31T03:46:10;100817.03;;;9.97;85.94
75609;BME280;64194;51.044;13.780;2022-10-31T03:50:14;100816.63;;;9.87;86.48
75609;BME280;64194;51.044;13.780;2022-10-31T03:54:24;100815.38;;;9.77;85.96
75609;BME280;64194;51.044;13.780;2022-10-31T03:58:31;100825.97;;;9.77;86.42
75609;BME280;64194;51.044;13.780;2022-10-31T04:02:38;100821.84;;;9.72;86.51
75609;BME280;64194;51.044;13.780;2022-10-31T04:06:42;100823.63;;;9.71;86.76
75609;BME280;64194;51.044;13.780;2022-10-31T04:10:48;100824.59;;;9.70;86.43
75609;BME280;64194;51.044;13.780;2022-10-31T04:14:52;100822.13;;;9.65;86.59
75609;BME280;64194;51.044;13.780;2022-10-31T04:18:56;100830.94;;;9.66;86.51
75609;BME280;64194;51.044;13.780;2022-10-31T04:22:58;100831.13;;;9.63;86.21
75609;BME280;64194;51.044;13.780;2022-10-31T04:27:00;100835.84;;;9.56;86.23
75609;BME280;64194;51.044;13.780;2022-10-31T04:31:03;100831.72;;;9.51;86.54
75609;BME280;64194;51.044;13.780;2022-10-31T04:35:08;100832.72;;;9.48;86.53
75609;BME280;64194;51.044;13.780;2022-10-31T04:39:10;100830.16;;;9.47;86.69
75609;BME280;64194;51.044;13.780;2022-10-31T04:43:16;100832.50;;;9.53;86.49
75609;BME280;64194;51.044;13.780;2022-10-31T04:47:19;100831.63;;;9.52;86.46
75609;BME280;64194;51.044;13.780;2022-10-31T04:51:21;100838.09;;;9.47;86.43
75609;BME280;64194;51.044;13.780;2022-10-31T04:55:22;100836.81;;;9.37;86.63
75609;BME280;64194;51.044;13.780;2022-10-31T04:59:42;100842.53;;;9.28;86.46
75609;BME280;64194;51.044;13.780;2022-10-31T05:03:44;100855.31;;;9.19;86.43
75609;BME280;64194;51.044;13.780;2022-10-31T05:07:47;100836.97;;;9.15;86.99
75609;BME280;64194;51.044;13.780;2022-10-31T05:11:51;100843.38;;;9.11;86.70
75609;BME280;64194;51.044;13.780;2022-10-31T05:16:16;100848.84;;;9.06;86.54
75609;BME280;64194;51.044;13.780;2022-10-31T05:20:36;100847.88;;;9.09;86.70
75609;BME280;64194;51.044;13.780;2022-10-31T05:24:46;100847.16;;;9.05;86.86
75609;BME280;64194;51.044;13.780;2022-10-31T05:28:47;100846.41;;;9.02;87.28
75609;BME280;64194;51.044;13.780;2022-10-31T05:32:50;100854.59;;;8.97;87.31
75609;BME280;64194;51.044;13.780;2022-10-31T05:37:12;100848.38;;;8.98;87.02
75609;BME280;64194;51.044;13.780;2022-10-31T05:41:15;100850.28;;;8.95;86.30
75609;BME280;64194;51.044;13.780;2022-10-31T05:45:21;100862.75;;;8.93;86.57
75609;BME280;64194;51.044;13.780;2022-10-31T05:49:31;100854.00;;;8.91;85.88
75609;BME280;64194;51.044;13.780;2022-10-31T05:54:01;100855.00;;;8.88;86.16
75609;BME280;64194;51.044;13.780;2022-10-31T05:58:04;100871.94;;;8.84;85.42
75609;BME280;64194;51.044;13.780;2022-10-31T06:02:07;100873.56;;;8.88;85.40
75609;BME280;64194;51.044;13.780;2022-10-31T06:06:29;100876.06;;;8.91;85.02
75609;BME280;64194;51.044;13.780;2022-10-31T06:10:31;100877.50;;;8.98;85.84
75609;BME280;64194;51.044;13.780;2022-10-31T06:14:33;100871.19;;;9.01;85.92
75609;BME280;64194;51.044;13.780;2022-10-31T06:18:35;100873.34;;;9.11;85.55
75609;BME280;64194;51.044;13.780;2022-10-31T06:22:37;100879.28;;;9.16;85.76
75609;BME280;64194;51.044;13.780;2022-10-31T06:26:39;100885.03;;;9.26;85.22
75609;BME280;64194;51.044;13.780;2022-10-31T06:30:42;100889.28;;;9.49;84.05
75609;BME280;64194;51.044;13.780;2022-10-31T06:34:45;100896.72;;;9.77;83.12
75609;BME280;64194;51.044;13.780;2022-10-31T06:38:49;100903.13;;;10.08;81.30
75609;BME280;64194;51.044;13.780;2022-10-31T06:42:59;100907.09;;;10.36;80.61
75609;BME280;64194;51.044;13.780;2022-10-31T06:47:01;100911.75;;;10.65;78.93
75609;BME280;64194;51.044;13.780;2022-10-31T06:51:24;100905.31;;;10.86;78.05
75609;BME280;64194;51.044;13.780;2022-10-31T06:55:26;100909.97;;;10.99;77.38
75609;BME280;64194;51.044;13.780;2022-10-31T06:59:28;100923.59;;;11.41;77.04
75609;BME280;64194;51.044;13.780;2022-10-31T07:03:50;100924.00;;;11.98;74.38
75609;BME280;64194;51.044;13.780;2022-10-31T07:08:06;100926.09;;;12.52;72.21
75609;BME280;64194;51.044;13.780;2022-10-31T07:12:08;100922.72;;;12.79;70.37
75609;BME280;64194;51.044;13.780;2022-10-31T07:16:13;100928.91;;;12.79;70.36
75609;BME280;64194;51.044;13.780;2022-10-31T07:20:16;100934.53;;;12.89;70.62
75609;BME280;64194;51.044;13.780;2022-10-31T07:24:18;100932.16;;;13.69;68.13
75609;BME280;64194;51.044;13.780;2022-10-31T07:28:49;100933.78;;;14.40;65.16
75609;BME280;64194;51.044;13.780;2022-10-31T07:32:55;100938.88;;;15.07;62.83
75609;BME280;64194;51.044;13.780;2022-10-31T07:36:59;100937.19;;;15.32;62.07
75609;BME280;64194;51.044;13.780;2022-10-31T07:41:00;100942.59;;;15.68;60.61
75609;BME280;64194;51.044;13.780;2022-10-31T07:45:06;100934.38;;;16.54;58.10
75609;BME280;64194;51.044;13.780;2022-10-31T07:49:38;100937.84;;;17.57;55.45
75609;BME280;64194;51.044;13.780;2022-10-31T07:54:17;100936.19;;;18.54;52.17
75609;BME280;64194;51.044;13.780;2022-10-31T07:58:19;100943.09;;;18.88;50.99
75609;BME280;64194;51.044;13.780;2022-10-31T08:02:21;100948.09;;;19.44;49.50
75609;BME280;64194;51.044;13.780;2022-10-31T08:06:22;100946.94;;;20.26;47.30
75609;BME280;64194;51.044;13.780;2022-10-31T08:10:46;100941.06;;;21.17;44.93
75609;BME280;64194;51.044;13.780;2022-10-31T08:14:48;100940.75;;;21.67;44.39
75609;BME280;64194;51.044;13.780;2022-10-31T08:18:53;100947.03;;;21.95;42.23
75609;BME280;64194;51.044;13.780;2022-10-31T08:23:01;100938.94;;;22.66;41.81
75609;BME280;64194;51.044;13.780;2022-10-31T08:27:05;100947.53;;;23.82;39.87
75609;BME280;64194;51.044;13.780;2022-10-31T08:31:07;100943.56;;;23.68;39.06
75609;BME280;64194;51.044;13.780;2022-10-31T08:35:14;100937.19;;;24.52;38.18
75609;BME280;64194;51.044;13.780;2022-10-31T08:39:48;100935.50;;;24.83;36.93
75609;BME280;64194;51.044;13.780;2022-10-31T08:43:49;100935.41;;;25.48;35.63
75609;BME280;64194;51.044;13.780;2022-10-31T08:47:51;100941.34;;;26.52;34.59
75609;BME280;64194;51.044;13.780;2022-10-31T08:51:53;100938.91;;;27.03;32.99
75609;BME280;64194;51.044;13.780;2022-10-31T08:55:55;100936.25;;;27.32;32.99
75609;BME280;64194;51.044;13.780;2022-10-31T08:59:59;100937.78;;;28.00;30.91
75609;BME280;64194;51.044;13.780;2022-10-31T09:04:26;100935.09;;;27.41;32.14
75609;BME280;64194;51.044;13.780;2022-10-31T09:08:30;100943.34;;;28.07;30.79
75609;BME280;64194;51.044;13.780;2022-10-31T09:12:32;100939.50;;;29.29;29.51
75609;BME280;64194;51.044;13.780;2022-10-31T09:16:40;100942.97;;;30.26;28.05
75609;BME280;64194;51.044;13.780;2022-10-31T09:20:49;100947.41;;;30.27;27.30
75609;BME280;64194;51.044;13.780;2022-10-31T09:24:51;100949.84;;;31.15;26.27
75609;BME280;64194;51.044;13.780;2022-10-31T09:28:53;100950.00;;;31.67;26.20
75609;BME280;64194;51.044;13.780;2022-10-31T09:32:59;100946.63;;;32.22;24.94
75609;BME280;64194;51.044;13.780;2022-10-31T09:37:01;100939.94;;;33.24;23.70
75609;BME280;64194;51.044;13.780;2022-10-31T09:45:51;100946.06;;;33.87;23.14
75609;BME280;64194;51.044;13.780;2022-10-31T09:50:18;100933.25;;;34.71;22.41
75609;BME280;64194;51.044;13.780;2022-10-31T09:58:53;100928.25;;;35.14;22.05
75609;BME280;64194;51.044;13.780;2022-10-31T10:03:01;100937.84;;;35.58;21.85
75609;BME280;64194;51.044;13.780;2022-10-31T10:07:19;100936.69;;;36.63;20.51
75609;BME280;64194;51.044;13.780;2022-10-31T10:17:27;100933.06;;;36.05;20.42
75609;BME280;64194;51.044;13.780;2022-10-31T10:25:34;100921.03;;;37.57;19.10
75609;BME280;64194;51.044;13.780;2022-10-31T10:29:50;100915.88;;;37.65;18.82
75609;BME280;64194;51.044;13.780;2022-10-31T10:34:16;100906.44;;;38.64;17.37
75609;BME280;64194;51.044;13.780;2022-10-31T10:42:26;100894.81;;;40.03;17.56
75609;BME280;64194;51.044;13.780;2022-10-31T10:46:55;100897.72;;;40.59;16.43
75609;BME280;64194;51.044;13.780;2022-10-31T10:56:12;100885.91;;;41.38;15.94
75609;BME280;64194;51.044;13.780;2022-10-31T11:00:40;100884.34;;;40.96;16.37
75609;BME280;64194;51.044;13.780;2022-10-31T11:04:43;100882.75;;;41.69;15.67
75609;BME280;64194;51.044;13.780;2022-10-31T11:08:45;100878.25;;;42.28;16.10
75609;BME280;64194;51.044;13.780;2022-10-31T11:13:17;100873.78;;;42.66;14.98
75609;BME280;64194;51.044;13.780;2022-10-31T11:17:38;100867.31;;;43.52;14.85
75609;BME280;64194;51.044;13.780;2022-10-31T11:21:40;100856.94;;;43.28;14.66
75609;BME280;64194;51.044;13.780;2022-10-31T11:26:20;100843.50;;;41.56;15.77
75609;BME280;64194;51.044;13.780;2022-10-31T11:30:22;100843.28;;;41.32;16.16
75609;BME280;64194;51.044;13.780;2022-10-31T11:34:30;100844.50;;;42.58;15.06
75609;BME280;64194;51.044;13.780;2022-10-31T11:38:39;100841.84;;;42.43;15.22
75609;BME280;64194;51.044;13.780;2022-10-31T11:42:43;100827.34;;;42.41;15.04
75609;BME280;64194;51.044;13.780;2022-10-31T11:46:52;100827.53;;;43.55;13.92
75609;BME280;64194;51.044;13.780;2022-10-31T11:50:57;100825.94;;;42.04;15.21
75609;BME280;64194;51.044;13.780;2022-10-31T11:55:13;100815.63;;;41.51;15.55
75609;BME280;64194;51.044;13.780;2022-10-31T11:59:27;100819.97;;;42.84;14.19
75609;BME280;64194;51.044;13.780;2022-10-31T12:07:37;100797.09;;;43.48;14.01
75609;BME280;64194;51.044;13.780;2022-10-31T12:16:09;100788.31;;;42.88;14.64
75609;BME280;64194;51.044;13.780;2022-10-31T12:20:35;100791.00;;;41.68;15.66
75609;BME280;64194;51.044;13.780;2022-10-31T12:25:00;100781.25;;;42.67;15.28
75609;BME280;64194;51.044;13.780;2022-10-31T12:29:30;100778.81;;;41.98;15.05
75609;BME280;64194;51.044;13.780;2022-10-31T12:47:18;100762.44;;;44.05;13.80
75609;BME280;64194;51.044;13.780;2022-10-31T12:51:45;100754.59;;;43.51;13.84
75609;BME280;64194;51.044;13.780;2022-10-31T13:00:16;100735.13;;;43.41;14.27
75609;BME280;64194;51.044;13.780;2022-10-31T13:04:35;100728.69;;;43.41;14.08
75609;BME280;64194;51.044;13.780;2022-10-31T13:08:46;100727.09;;;42.39;14.73
75609;BME280;64194;51.044;13.780;2022-10-31T13:17:46;100719.88;;;43.90;13.62
75609;BME280;64194;51.044;13.780;2022-10-31T13:26:01;100707.13;;;45.17;12.47
75609;BME280;64194;51.044;13.780;2022-10-31T13:30:17;100712.91;;;45.20;11.92
75609;BME280;64194;51.044;13.780;2022-10-31T13:34:26;100703.66;;;44.51;13.01
75609;BME280;64194;51.044;13.780;2022-10-31T13:38:34;100702.44;;;44.25;12.99
75609;BME280;64194;51.044;13.780;2022-10-31T13:47:25;100693.81;;;39.35;16.84
75609;BME280;64194;51.044;13.780;2022-10-31T13:51:33;100682.28;;;36.44;20.42
75609;BME280;64194;51.044;13.780;2022-10-31T13:55:40;100674.34;;;35.36;21.51
75609;BME280;64194;51.044;13.780;2022-10-31T13:59:50;100675.22;;;35.53;21.71
75609;BME280;64194;51.044;13.780;2022-10-31T14:04:00;100679.75;;;37.74;19.06
75609;BME280;64194;51.044;13.780;2022-10-31T14:08:20;100678.13;;;37.78;19.25
75609;BME280;64194;51.044;13.780;2022-10-31T14:12:27;100665.16;;;35.92;21.51
75609;BME280;64194;51.044;13.780;2022-10-31T14:16:31;100659.00;;;35.40;21.71
75609;BME280;64194;51.044;13.780;2022-10-31T14:20:44;100653.47;;;35.57;22.11
75609;BME280;64194;51.044;13.780;2022-10-31T14:24:46;100652.13;;;35.03;23.66
75609;BME280;64194;51.044;13.780;2022-10-31T14:28:49;100645.75;;;35.42;21.88
75609;BME280;64194;51.044;13.780;2022-10-31T14:46:14;100633.53;;;29.72;29.81
75609;BME280;64194;51.044;13.780;2022-10-31T14:50:24;100630.19;;;27.22;33.64
75609;BME280;64194;51.044;13.780;2022-10-31T14:54:33;100631.97;;;25.91;36.62
75609;BME280;64194;51.044;13.780;2022-10-31T14:58:42;100621.72;;;24.71;39.22
75609;BME280;64194;51.044;13.780;2022-10-31T15:03:15;100620.59;;;24.02;42.24
75609;BME280;64194;51.044;13.780;2022-10-31T15:07:24;100626.25;;;23.44;44.76
75609;BME280;64194;51.044;13.780;2022-10-31T15:11:26;100623.97;;;22.99;46.30
75609;BME280;64194;51.044;13.780;2022-10-31T15:15:29;100618.22;;;22.52;47.96
75609;BME280;64194;51.044;13.780;2022-10-31T15:19:33;100621.47;;;21.96;49.27
75609;BME280;64194;51.044;13.780;2022-10-31T15:23:36;100616.75;;;21.54;50.73
75609;BME280;64194;51.044;13.780;2022-10-31T15:27:40;100612.28;;;21.10;51.67
75609;BME280;64194;51.044;13.780;2022-10-31T15:36:01;100608.00;;;20.44;54.07
75609;BME280;64194;51.044;13.780;2022-10-31T15:40:12;100601.19;;;20.03;54.86
75609;BME280;64194;51.044;13.780;2022-10-31T15:44:34;100606.09;;;19.71;56.08
75609;BME280;64194;51.044;13.780;2022-10-31T15:48:38;100604.44;;;19.41;57.33
75609;BME280;64194;51.044;13.780;2022-10-31T15:52:44;100602.03;;;19.19;58.14
75609;BME280;64194;51.044;13.780;2022-10-31T15:56:49;100602.72;;;19.02;58.41
75609;BME280;64194;51.044;13.780;2022-10-31T16:01:06;100588.81;;;18.77;59.03
75609;BME280;64194;51.044;13.780;2022-10-31T16:05:16;100584.50;;;18.56;59.75
75609;BME280;64194;51.044;13.780;2022-10-31T16:09:23;100580.63;;;18.39;60.30
75609;BME280;64194;51.044;13.780;2022-10-31T16:13:36;100577.59;;;18.23;61.03
75609;BME280;64194;51.044;13.780;2022-10-31T16:17:41;100578.84;;;18.09;61.30
75609;BME280;64194;51.044;13.780;2022-10-31T16:21:44;100585.56;;;17.94;62.07
75609;BME280;64194;51.044;13.780;2022-10-31T16:25:48;100590.56;;;17.78;62.49
75609;BME280;64194;51.044;13.780;2022-10-31T16:29:50;100590.88;;;17.64;63.09
75609;BME280;64194;51.044;13.780;2022-10-31T16:34:02;100594.75;;;17.50;63.39
75609;BME280;64194;51.044;13.780;2022-10-31T16:38:05;100586.13;;;17.35;63.70
75609;BME280;64194;51.044;13.780;2022-10-31T16:42:08;100588.19;;;17.22;64.34
75609;BME280;64194;51.044;13.780;2022-10-31T16:46:15;100588.81;;;17.14;64.31
75609;BME280;64194;51.044;13.780;2022-10-31T16:50:24;100587.03;;;17.04;64.94
75609;BME280;64194;51.044;13.780;2022-10-31T16:54:28;100589.03;;;16.91;65.17
75609;BME280;64194;51.044;13.780;2022-10-31T16:58:34;100589.91;;;16.80;65.30
75609;BME280;64194;51.044;13.780;2022-10-31T17:02:36;100595.81;;;16.74;65.43
75609;BME280;64194;51.044;13.780;2022-10-31T17:06:39;100590.31;;;16.64;65.95
75609;BME280;64194;51.044;13.780;2022-10-31T17:10:42;100588.25;;;16.57;65.65
75609;BME280;64194;51.044;13.780;2022-10-31T17:15:20;100588.38;;;16.44;66.38
75609;BME280;64194;51.044;13.780;2022-10-31T17:19:23;100582.06;;;16.34;66.58
75609;BME280;64194;51.044;13.780;2022-10-31T17:29:26;100579.53;;;16.10;67.62
75609;BME280;64194;51.044;13.780;2022-10-31T17:33:44;100575.75;;;16.02;67.65
75609;BME280;64194;51.044;13.780;2022-10-31T17:37:48;100582.47;;;15.96;67.94
75609;BME280;64194;51.044;13.780;2022-10-31T17:41:50;100572.22;;;15.90;68.29
75609;BME280;64194;51.044;13.780;2022-10-31T17:45:54;100575.50;;;15.82;68.49
75609;BME280;64194;51.044;13.780;2022-10-31T17:54:49;100559.56;;;15.92;68.61
75609;BME280;64194;51.044;13.780;2022-10-31T17:59:16;100564.44;;;15.98;68.58
75609;BME280;64194;51.044;13.780;2022-10-31T18:03:19;100559.91;;;15.99;68.34
75609;BME280;64194;51.044;13.780;2022-10-31T18:07:50;100563.72;;;15.85;69.00
75609;BME280;64194;51.044;13.780;2022-10-31T18:11:53;100555.78;;;15.83;68.51
75609;BME280;64194;51.044;13.780;2022-10-31T18:15:55;100557.13;;;15.78;69.08
75609;BME280;64194;51.044;13.780;2022-10-31T18:19:57;100564.44;;;15.76;69.13
75609;BME280;64194;51.044;13.780;2022-10-31T18:24:08;100562.38;;;15.79;69.28
75609;BME280;64194;51.044;13.780;2022-10-31T18:28:29;100557.59;;;15.72;69.45
75609;BME280;64194;51.044;13.780;2022-10-31T18:32:32;100561.13;;;15.61;70.20
75609;BME280;64194;51.044;13.780;2022-10-31T18:37:02;100563.56;;;15.53;70.22
75609;BME280;64194;51.044;13.780;2022-10-31T18:41:14;100557.19;;;15.43;70.64
75609;BME280;64194;51.044;13.780;2022-10-31T18:45:30;100551.81;;;15.43;70.50
75609;BME280;64194;51.044;13.780;2022-10-31T18:49:47;100542.41;;;15.26;71.26
75609;BME280;64194;51.044;13.780;2022-10-31T18:54:17;100544.69;;;15.08;71.87
75609;BME280;64194;51.044;13.780;2022-10-31T18:58:19;100546.34;;;14.98;72.38
75609;BME280;64194;51.044;13.780;2022-10-31T19:02:21;100540.00;;;14.88;72.82
75609;BME280;64194;51.044;13.780;2022-10-31T19:11:18;100533.59;;;14.67;73.55
75609;BME280;64194;51.044;13.780;2022-10-31T19:21:17;100522.69;;;14.34;74.78
75609;BME280;64194;51.044;13.780;2022-10-31T19:25:23;100525.28;;;14.22;74.98
75609;BME280;64194;51.044;13.780;2022-10-31T19:29:39;100527.63;;;14.14;75.34
75609;BME280;64194;51.044;13.780;2022-10-31T19:33:45;100524.25;;;14.12;75.74
75609;BME280;64194;51.044;13.780;2022-10-31T19:37:47;100518.06;;;14.12;75.55
75609;BME280;64194;51.044;13.780;2022-10-31T19:41:49;100520.63;;;14.01;76.46
75609;BME280;64194;51.044;13.780;2022-10-31T19:46:08;100511.25;;;13.95;76.11
75609;BME280;64194;51.044;13.780;2022-10-31T19:51:00;100512.22;;;13.94;76.22
75609;BME280;64194;51.044;13.780;2022-10-31T19:55:17;100510.66;;;13.79;76.79
75609;BME280;64194;51.044;13.780;2022-10-31T20:04:14;100488.19;;;13.81;76.47
75609;BME280;64194;51.044;13.780;2022-10-31T20:08:37;100471.47;;;13.79;76.73
75609;BME280;64194;51.044;13.780;2022-10-31T20:12:40;100486.72;;;13.65;77.64
75609;BME280;64194;51.044;13.780;2022-10-31T20:16:55;100477.47;;;13.58;77.27
75609;BME280;64194;51.044;13.780;2022-10-31T20:21:26;100471.81;;;13.62;77.22
75609;BME280;64194;51.044;13.780;2022-10-31T20:26:00;100490.50;;;13.62;77.30
75609;BME280;64194;51.044;13.780;2022-10-31T20:30:28;100487.16;;;13.59;77.43
75609;BME280;64194;51.044;13.780;2022-10-31T20:34:52;100482.06;;;13.56;77.17
75609;BME280;64194;51.044;13.780;2022-10-31T20:45:18;100475.00;;;13.67;76.45
75609;BME280;64194;51.044;13.780;2022-10-31T20:49:20;100466.03;;;13.68;76.82
75609;BME280;64194;51.044;13.780;2022-10-31T20:53:21;100456.66;;;13.63;76.67
75609;BME280;64194;51.044;13.780;2022-10-31T20:57:23;100449.69;;;13.60;76.98
75609;BME280;64194;51.044;13.780;2022-10-31T21:01:29;100450.66;;;13.59;76.91
75609;BME280;64194;51.044;13.780;2022-10-31T21:06:02;100433.91;;;13.57;76.94
75609;BME280;64194;51.044;13.780;2022-10-31T21:10:06;100434.03;;;13.56;76.92
75609;BME280;64194;51.044;13.780;2022-10-31T21:14:17;100437.88;;;13.52;76.62
75609;BME280;64194;51.044;13.780;2022-10-31T21:18:18;100442.28;;;13.40;77.28
75609;BME280;64194;51.044;13.780;2022-10-31T21:22:20;100444.59;;;13.32;77.63
75609;BME280;64194;51.044;13.780;2022-10-31T21:26:25;100432.34;;;13.29;77.60
75609;BME280;64194;51.044;13.780;2022-10-31T21:30:43;100431.84;;;13.24;77.97
75609;BME280;64194;51.044;13.780;2022-10-31T21:34:46;100432.69;;;13.25;78.02
75609;BME280;64194;51.044;13.780;2022-10-31T21:44:28;100425.13;;;13.19;78.23
75609;BME280;64194;51.044;13.780;2022-10-31T21:48:30;100417.31;;;13.16;77.83
75609;BME280;64194;51.044;13.780;2022-10-31T21:52:31;100409.94;;;13.07;78.24
75609;BME280;64194;51.044;13.780;2022-10-31T21:57:07;100411.88;;;12.92;78.33
75609;BME280;64194;51.044;13.780;2022-10-31T22:10:54;100389.47;;;12.82;79.53
75609;BME280;64194;51.044;13.780;2022-10-31T22:14:55;100390.09;;;12.85;80.02
75609;BME280;64194;51.044;13.780;2022-10-31T22:18:58;100382.53;;;12.79;79.83
75609;BME280;64194;51.044;13.780;2022-10-31T22:23:00;100379.44;;;12.85;79.09
75609;BME280;64194;51.044;13.780;2022-10-31T22:27:02;100377.72;;;12.84;78.82
75609;BME280;64194;51.044;13.780;2022-10-31T22:31:04;100379.22;;;12.76;80.17
75609;BME280;64194;51.044;13.780;2022-10-31T22:35:06;100375.06;;;12.72;80.17
75609;BME280;64194;51.044;13.780;2022-10-31T22:39:10;100376.22;;;12.68;80.66
75609;BME280;64194;51.044;13.780;2022-10-31T22:43:13;100360.47;;;12.65;80.35
75609;BME280;64194;51.044;13.780;2022-10-31T22:47:15;100353.63;;;12.61;80.50
75609;BME280;64194;51.044;13.780;2022-10-31T22:51:26;100350.97;;;12.48;79.57
75609;BME280;64194;51.044;13.780;2022-10-31T22:55:28;100350.31;;;12.44;81.49
75609;BME280;64194;51.044;13.780;2022-10-31T22:59:29;100347.63;;;12.44;81.65
75609;BME280;64194;51.044;13.780;2022-10-31T23:03:31;100341.16;;;12.48;82.28
75609;BME280;64194;51.044;13.780;2022-10-31T23:07:38;100342.44;;;12.43;82.36
75609;BME280;64194;51.044;13.780;2022-10-31T23:21:51;100327.78;;;12.23;83.63
75609;BME280;64194;51.044;13.780;2022-10-31T23:25:59;100325.03;;;12.25;83.89
75609;BME280;64194;51.044;13.780;2022-10-31T23:30:45;100307.78;;;12.30;83.92
75609;BME280;64194;51.044;13.780;2022-10-31T23:35:21;100305.03;;;12.32;83.65
75609;BME280;64194;51.044;13.780;2022-10-31T23:39:24;100296.91;;;12.33;84.15
75609;BME280;64194;51.044;13.780;2022-10-31T23:43:26;100284.34;;;12.35;84.29
75609;BME280;64194;51.044;13.780;2022-10-31T23:53:34;100290.56;;;12.48;84.57
75609;BME280;64194;51.044;13.780;2022-10-31T23:57:37;100265.50;;;12.51;84.25
